Terminal Aerodrome Forecast
Issued by NWS

Home | Current Version | Previous Version | Text Only | Print | Product List | Glossary On
Versions: 1 2 3 4 5 6 7 8 9 10 11 12 13 14 15 16 17 18 19 20 21 22 23 24 25 26 27 28 29 30 31 32 33 34
000
FTUS43 KDTX 211731
TAFPTK
TAF
KPTK 211731Z 2118/2218 19008KT P6SM OVC050
     FM212300 16006KT P6SM SCT050
     FM220400 14005KT 5SM BR SCT025
      TEMPO 2204/2207 BKN020
     FM221500 14007KT P6SM FEW020 SCT200=

USA.gov is the U.S. government's official web portal to all federal, state and local government web resources and services.